Time;durP1;ratioP1;P1;durP2;ratioP2;P2;SDS_P1;SDS_P2;PMS_P1;PMS_P2;Temp;Humidity;BMP_temperature;BMP_pressure;BME280_temperature;BME280_humidity;BME280_pressure;Samples;Min_cycle;Max_cycle;Signal;HPM_P1;HPM_P2
2022/02/14 00:00:23;;;;;;;3.78;0.60;;;7.10;99.90;;;;;;6146449;23;20013;-78
2022/02/14 00:02:49;;;;;;;1.92;0.60;;;7.10;99.90;;;;;;6121615;23;20010;-77
2022/02/14 00:05:15;;;;;;;2.63;0.70;;;7.10;99.90;;;;;;6121779;23;20103;-78
2022/02/14 00:07:40;;;;;;;3.60;0.60;;;7.10;99.90;;;;;;6145939;23;20014;-78
2022/02/14 00:10:07;;;;;;;3.28;0.57;;;7.10;99.90;;;;;;6146119;23;20565;-78
2022/02/14 00:12:34;;;;;;;1.60;0.50;;;7.10;99.90;;;;;;6146741;23;20040;-78
2022/02/14 00:15:02;;;;;;;2.53;0.70;;;7.10;99.90;;;;;;6121477;23;20072;-78
2022/02/14 00:17:28;;;;;;;1.95;0.60;;;7.10;99.90;;;;;;6145825;23;20010;-77
2022/02/14 00:19:54;;;;;;;2.17;0.60;;;7.00;99.90;;;;;;6146187;23;20068;-77
2022/02/14 00:22:21;;;;;;;3.28;0.50;;;7.00;99.90;;;;;;6145946;23;20012;-77
2022/02/14 00:24:51;;;;;;;2.38;0.60;;;7.00;99.90;;;;;;6121031;23;20226;-77
2022/02/14 00:27:18;;;;;;;;;;;7.10;99.90;;;;;;6121898;23;20172;-79
2022/02/14 00:29:45;;;;;;;2.88;0.60;;;7.10;99.90;;;;;;6121118;23;19923;-78
2022/02/14 00:32:11;;;;;;;2.30;0.63;;;7.20;99.90;;;;;;6145931;23;20036;-78
2022/02/14 00:34:36;;;;;;;3.90;0.60;;;7.30;99.90;;;;;;6121302;23;20443;-78
2022/02/14 00:37:03;;;;;;;1.52;0.40;;;7.30;99.90;;;;;;6147251;23;20076;-77
2022/02/14 00:39:29;;;;;;;2.03;0.45;;;7.30;99.90;;;;;;6120970;23;20514;-77
2022/02/14 00:41:55;;;;;;;3.00;0.60;;;7.30;99.90;;;;;;6146359;23;20005;-77
2022/02/14 00:44:20;;;;;;;4.70;0.70;;;7.30;99.90;;;;;;6145401;23;20477;-77
2022/02/14 00:46:47;;;;;;;5.10;0.50;;;7.40;99.90;;;;;;6120948;23;20040;-77
2022/02/14 00:49:12;;;;;;;1.65;0.40;;;7.50;99.90;;;;;;6146122;23;20733;-77
2022/02/14 00:51:38;;;;;;;5.75;0.50;;;7.50;99.90;;;;;;6145575;23;20063;-77
2022/02/14 00:54:04;;;;;;;1.50;0.50;;;7.50;99.90;;;;;;6145815;23;20009;-78
2022/02/14 00:56:29;;;;;;;4.07;0.40;;;7.50;99.90;;;;;;6145135;23;20028;-78
2022/02/14 00:58:55;;;;;;;1.70;0.50;;;7.50;99.90;;;;;;6145415;23;20014;-79
2022/02/14 01:01:21;;;;;;;2.80;0.50;;;7.60;99.90;;;;;;6121556;23;20014;-78
2022/02/14 01:03:47;;;;;;;2.08;0.55;;;7.70;99.90;;;;;;6145219;23;20076;-76
2022/02/14 01:06:13;;;;;;;2.42;0.50;;;7.80;99.90;;;;;;6147419;23;20431;-77
2022/02/14 01:08:39;;;;;;;2.00;0.52;;;7.80;99.90;;;;;;6147216;23;20017;-77
2022/02/14 01:11:05;;;;;;;2.33;0.50;;;7.80;99.90;;;;;;6122219;23;20010;-77
2022/02/14 01:13:31;;;;;;;2.58;0.68;;;7.80;99.90;;;;;;6147837;23;20021;-77
2022/02/14 01:15:56;;;;;;;3.45;0.50;;;7.70;99.90;;;;;;6147742;23;20514;-79
2022/02/14 01:18:22;;;;;;;2.72;0.50;;;7.60;99.90;;;;;;6148230;23;20009;-78
2022/02/14 01:20:47;;;;;;;2.10;0.52;;;7.60;99.90;;;;;;6146975;23;20025;-78
2022/02/14 01:23:13;;;;;;;2.10;0.50;;;7.60;99.90;;;;;;6148070;23;20021;-77
2022/02/14 01:25:39;;;;;;;4.55;0.52;;;7.50;99.90;;;;;;6146729;23;20016;-78
2022/02/14 01:28:04;;;;;;;4.10;0.60;;;7.60;99.90;;;;;;6147125;23;20028;-77
2022/02/14 01:30:30;;;;;;;3.60;0.50;;;7.50;99.90;;;;;;6148934;23;20002;-77
2022/02/14 01:32:58;;;;;;;2.33;0.60;;;7.50;99.90;;;;;;6147556;23;20494;-77
2022/02/14 01:35:24;;;;;;;2.25;0.50;;;7.50;99.90;;;;;;6149201;23;20435;-77
2022/02/14 01:37:50;;;;;;;4.78;0.65;;;7.50;99.90;;;;;;6122601;23;20068;-77
2022/02/14 01:40:16;;;;;;;2.33;0.68;;;7.50;99.90;;;;;;6146707;23;20009;-82
2022/02/14 01:42:41;;;;;;;3.85;0.63;;;7.60;99.90;;;;;;6147182;23;20287;-77
2022/02/14 01:45:09;;;;;;;5.03;0.75;;;7.60;99.90;;;;;;6123307;23;20084;-78
2022/02/14 01:47:35;;;;;;;3.75;0.70;;;7.60;99.90;;;;;;6148737;23;20411;-78
2022/02/14 01:50:03;;;;;;;3.90;0.60;;;7.60;99.90;;;;;;6147425;23;20089;-78
2022/02/14 01:52:30;;;;;;;2.70;0.60;;;7.60;99.90;;;;;;6146353;23;20008;-79
2022/02/14 01:54:56;;;;;;;2.92;0.70;;;7.60;99.90;;;;;;6122798;23;20463;-78
2022/02/14 01:57:22;;;;;;;3.45;0.73;;;7.70;99.90;;;;;;6149158;23;20037;-78
2022/02/14 01:59:47;;;;;;;1.85;0.50;;;7.70;99.90;;;;;;6122188;23;20006;-77
2022/02/14 02:02:13;;;;;;;3.10;0.50;;;7.60;99.90;;;;;;6147046;23;20014;-78
2022/02/14 02:04:42;;;;;;;2.25;0.43;;;7.60;99.90;;;;;;6146796;23;20017;-78
2022/02/14 02:07:08;;;;;;;1.77;0.50;;;7.60;99.90;;;;;;6146941;23;20215;-78
2022/02/14 02:09:35;;;;;;;3.05;0.50;;;7.60;99.90;;;;;;6121777;23;20477;-79
2022/02/14 02:14:45;;;;;;;2.97;0.60;;;7.50;99.90;;;;;;6148495;23;20009;-78
2022/02/14 02:17:13;;;;;;;2.17;0.50;;;7.50;99.90;;;;;;6121995;23;20391;-78
2022/02/14 02:19:39;;;;;;;6.40;0.50;;;7.50;99.90;;;;;;6146820;23;20053;-77
2022/02/14 02:22:05;;;;;;;3.45;0.70;;;7.50;99.90;;;;;;6146664;23;20013;-78
2022/02/14 02:24:39;;;;;;;6.15;0.70;;;7.50;99.90;;;;;;6146864;23;20029;-78
2022/02/14 02:27:05;;;;;;;2.75;0.50;;;7.50;99.90;;;;;;6122562;23;20006;-78
2022/02/14 02:29:40;;;;;;;2.55;0.65;;;7.50;99.90;;;;;;6121770;23;20446;-77
2022/02/14 02:32:07;;;;;;;4.07;0.60;;;7.60;99.90;;;;;;6147019;23;20471;-78
2022/02/14 02:34:40;;;;;;;3.80;0.60;;;7.60;99.90;;;;;;6147823;23;20036;-78
2022/02/14 02:37:08;;;;;;;4.68;0.70;;;7.70;99.90;;;;;;6145983;23;20056;-77
2022/02/14 02:39:34;;;;;;;3.60;0.80;;;7.60;99.90;;;;;;6146807;23;20017;-79
2022/02/14 02:42:02;;;;;;;4.68;0.60;;;7.60;99.90;;;;;;6148353;23;20006;-78
2022/02/14 02:44:27;;;;;;;3.60;0.80;;;7.70;99.90;;;;;;6146423;23;20061;-77
2022/02/14 02:46:53;;;;;;;1.50;0.50;;;7.60;99.90;;;;;;6122161;23;20088;-80
2022/02/14 02:49:22;;;;;;;3.88;0.60;;;7.60;99.90;;;;;;6146556;23;20052;-78
2022/02/14 02:51:50;;;;;;;1.50;0.43;;;7.70;99.90;;;;;;6121305;23;20576;-78
2022/02/14 02:54:15;;;;;;;3.40;0.70;;;7.70;99.90;;;;;;6122174;23;20342;-78
2022/02/14 02:56:44;;;;;;;5.30;0.50;;;7.70;99.90;;;;;;6121566;23;20017;-77
2022/02/14 02:59:09;;;;;;;2.10;0.70;;;7.70;99.90;;;;;;6122301;23;20454;-78
2022/02/14 03:01:36;;;;;;;3.80;0.65;;;7.70;99.90;;;;;;6122068;23;20009;-80
2022/02/14 03:04:02;;;;;;;2.47;0.50;;;7.70;99.90;;;;;;6121942;23;20024;-78
2022/02/14 03:06:28;;;;;;;3.30;0.80;;;7.70;99.90;;;;;;6120932;23;20461;-77
2022/02/14 03:08:54;;;;;;;2.20;0.40;;;7.70;99.90;;;;;;6146386;23;20025;-77
2022/02/14 03:11:20;;;;;;;4.90;0.60;;;7.70;99.90;;;;;;6146734;23;20013;-78
2022/02/14 03:13:47;;;;;;;3.03;0.80;;;7.80;99.90;;;;;;6122010;23;20037;-77
2022/02/14 03:16:13;;;;;;;3.22;0.52;;;7.80;99.90;;;;;;6145967;23;20064;-77
2022/02/14 03:18:39;;;;;;;2.55;0.50;;;7.80;99.90;;;;;;6121280;23;20100;-78
2022/02/14 03:21:06;;;;;;;4.65;1.15;;;7.80;99.90;;;;;;6146225;23;20010;-77
2022/02/14 03:23:33;;;;;;;3.03;0.52;;;7.70;99.90;;;;;;6121198;23;20477;-79
2022/02/14 03:25:59;;;;;;;3.25;0.60;;;7.80;99.90;;;;;;6121978;23;20021;-78
2022/02/14 03:28:25;;;;;;;2.17;0.40;;;7.80;99.90;;;;;;6145767;23;20021;-78
2022/02/14 03:30:50;;;;;;;3.38;0.55;;;7.70;99.90;;;;;;6144741;23;20018;-78
2022/02/14 03:33:16;;;;;;;2.20;0.50;;;7.70;99.90;;;;;;6122338;23;20434;-78
2022/02/14 03:35:42;;;;;;;2.40;0.50;;;7.70;99.90;;;;;;6145234;23;20021;-77
2022/02/14 03:38:07;;;;;;;3.38;0.45;;;7.70;99.90;;;;;;6146289;23;20278;-79
2022/02/14 03:40:37;;;;;;;2.30;0.55;;;7.70;99.90;;;;;;6145884;23;20465;-78
2022/02/14 03:43:04;;;;;;;2.38;0.60;;;7.70;99.90;;;;;;6121736;23;20014;-77
2022/02/14 03:45:31;;;;;;;1.35;0.40;;;7.70;99.90;;;;;;6145437;23;20088;-77
2022/02/14 03:47:58;;;;;;;2.78;0.50;;;7.60;99.90;;;;;;6121710;23;20009;-78
2022/02/14 03:50:24;;;;;;;3.65;0.47;;;7.70;99.90;;;;;;6120755;23;20013;-77
2022/02/14 03:52:50;;;;;;;2.17;0.50;;;7.70;99.90;;;;;;6121906;23;20025;-77
2022/02/14 03:55:18;;;;;;;2.58;0.40;;;7.70;99.90;;;;;;6145649;23;20002;-78
2022/02/14 03:57:45;;;;;;;2.63;0.60;;;7.70;99.90;;;;;;6121364;23;20096;-78
2022/02/14 04:00:13;;;;;;;2.42;0.40;;;7.70;99.90;;;;;;6121437;23;20088;-78
2022/02/14 04:02:41;;;;;;;4.53;0.50;;;7.70;99.90;;;;;;6121605;23;20017;-77
2022/02/14 04:05:09;;;;;;;1.85;0.50;;;7.70;99.90;;;;;;6120466;23;20014;-77
2022/02/14 04:07:36;;;;;;;5.00;0.60;;;7.70;99.90;;;;;;6121281;23;20064;-78
2022/02/14 04:10:02;;;;;;;4.07;0.70;;;7.80;99.90;;;;;;6121684;23;20028;-78
2022/02/14 04:12:28;;;;;;;3.05;0.50;;;7.80;99.90;;;;;;6121665;23;20088;-77
2022/02/14 04:14:53;;;;;;;4.65;0.50;;;7.80;99.90;;;;;;6121117;23;20044;-78
2022/02/14 04:17:19;;;;;;;4.57;0.60;;;7.80;99.90;;;;;;6121348;23;20010;-77
2022/02/14 04:19:45;;;;;;;1.60;0.50;;;7.80;99.90;;;;;;6145168;23;20017;-78
2022/02/14 04:22:10;;;;;;;5.57;0.50;;;7.80;99.90;;;;;;6146037;23;20451;-77
2022/02/14 04:24:36;;;;;;;3.15;0.60;;;7.80;99.90;;;;;;6121014;23;20465;-79
2022/02/14 04:27:01;;;;;;;2.42;0.50;;;7.90;99.90;;;;;;6121235;23;20442;-78
2022/02/14 04:29:27;;;;;;;1.80;0.40;;;7.90;99.90;;;;;;6145720;23;20040;-78
2022/02/14 04:31:53;;;;;;;5.63;0.82;;;7.90;99.90;;;;;;6121247;23;20346;-78
2022/02/14 04:34:19;;;;;;;2.78;0.50;;;7.90;99.90;;;;;;6145744;23;20020;-78
2022/02/14 04:36:51;;;;;;;2.25;0.40;;;8.00;99.90;;;;;;6145823;23;20006;-77
2022/02/14 04:39:18;;;;;;;1.85;0.50;;;8.00;99.90;;;;;;6147079;23;20092;-77
2022/02/14 04:41:43;;;;;;;3.85;0.50;;;8.10;99.90;;;;;;6147497;23;20010;-78
2022/02/14 04:44:11;;;;;;;2.75;0.50;;;8.00;99.90;;;;;;6147507;23;20315;-77
2022/02/14 04:46:37;;;;;;;1.50;0.50;;;8.10;99.90;;;;;;6146949;23;20009;-77
2022/02/14 04:49:05;;;;;;;2.30;0.50;;;8.10;99.90;;;;;;6122870;23;20021;-77
2022/02/14 04:51:31;;;;;;;2.95;0.77;;;8.10;99.90;;;;;;6122522;23;20006;-79
2022/02/14 04:53:56;;;;;;;2.13;0.38;;;8.10;99.90;;;;;;6147660;23;20073;-78
2022/02/14 04:56:22;;;;;;;3.58;0.80;;;8.10;99.90;;;;;;6147784;23;20017;-77
2022/02/14 04:58:48;;;;;;;2.28;0.50;;;8.10;99.90;;;;;;6122769;23;20013;-78
2022/02/14 05:01:14;;;;;;;2.00;0.60;;;8.10;99.90;;;;;;6149016;23;20016;-78
2022/02/14 05:03:40;;;;;;;3.33;0.70;;;8.00;99.90;;;;;;6122965;23;20033;-78
2022/02/14 05:06:05;;;;;;;1.80;0.40;;;8.10;99.90;;;;;;6149154;23;20014;-78
2022/02/14 05:08:32;;;;;;;1.60;0.45;;;8.00;99.90;;;;;;6149185;23;20036;-78
2022/02/14 05:10:57;;;;;;;3.47;0.52;;;8.10;99.90;;;;;;6122904;23;20013;-79
2022/02/14 05:13:23;;;;;;;1.45;0.40;;;8.10;99.90;;;;;;6149173;23;20016;-78
2022/02/14 05:15:49;;;;;;;4.32;0.50;;;8.20;99.90;;;;;;6146620;23;20009;-78
2022/02/14 05:18:15;;;;;;;1.40;0.40;;;8.20;99.90;;;;;;6150294;23;20080;-78
2022/02/14 05:20:41;;;;;;;2.55;0.65;;;8.20;99.90;;;;;;6147531;23;20068;-78
2022/02/14 05:23:07;;;;;;;3.05;0.65;;;8.20;99.90;;;;;;6147635;23;20020;-78
2022/02/14 05:25:32;;;;;;;1.67;0.30;;;8.20;99.90;;;;;;6147581;23;20347;-78
2022/02/14 05:27:58;;;;;;;4.40;0.50;;;8.20;99.90;;;;;;6147778;23;20010;-78
2022/02/14 05:30:24;;;;;;;1.02;0.30;;;8.30;99.90;;;;;;6122609;23;20020;-78
2022/02/14 05:32:50;;;;;;;3.63;0.38;;;8.30;99.90;;;;;;6144710;23;20045;-78
2022/02/14 05:35:16;;;;;;;1.83;0.40;;;8.30;99.90;;;;;;6122888;23;20077;-79
2022/02/14 05:37:41;;;;;;;2.25;0.38;;;8.40;99.90;;;;;;6147405;23;20049;-79
2022/02/14 05:40:08;;;;;;;2.05;0.38;;;8.40;99.90;;;;;;6147218;23;20018;-79
2022/02/14 05:42:34;;;;;;;2.72;0.38;;;8.50;99.90;;;;;;6122432;23;20016;-78
2022/02/14 05:44:59;;;;;;;3.65;0.75;;;8.50;99.90;;;;;;6122251;23;20387;-78
2022/02/14 05:47:25;;;;;;;1.58;0.30;;;8.50;99.90;;;;;;6123653;23;20032;-77
2022/02/14 05:49:51;;;;;;;1.25;0.32;;;8.60;99.90;;;;;;6123774;23;20026;-78
2022/02/14 05:52:18;;;;;;;1.63;0.28;;;8.60;99.90;;;;;;6150755;23;20012;-78
2022/02/14 05:54:44;;;;;;;5.07;0.50;;;8.70;99.90;;;;;;6122668;23;20152;-78
2022/02/14 05:57:10;;;;;;;2.13;0.50;;;8.70;99.90;;;;;;6123147;23;20184;-78
2022/02/14 05:59:36;;;;;;;1.60;0.30;;;8.80;99.90;;;;;;6146574;23;20014;-78
2022/02/14 06:02:02;;;;;;;1.13;0.30;;;8.80;99.90;;;;;;6146531;23;20017;-78
2022/02/14 06:04:28;;;;;;;3.47;0.30;;;8.80;99.90;;;;;;6148445;23;20006;-77
2022/02/14 06:06:54;;;;;;;2.67;0.45;;;8.80;99.90;;;;;;6122967;23;20056;-80
2022/02/14 06:09:21;;;;;;;1.63;0.40;;;8.90;99.90;;;;;;6147228;23;20045;-79
2022/02/14 06:11:47;;;;;;;1.10;0.30;;;8.80;99.90;;;;;;6122325;23;20951;-78
2022/02/14 06:14:13;;;;;;;2.05;0.35;;;8.90;99.90;;;;;;6121555;23;20010;-78
2022/02/14 06:16:39;;;;;;;2.58;0.30;;;8.80;99.90;;;;;;6121689;23;20064;-78
2022/02/14 06:19:05;;;;;;;1.98;0.20;;;8.90;99.90;;;;;;6122377;23;20020;-78
2022/02/14 06:21:30;;;;;;;2.03;0.30;;;8.90;99.90;;;;;;6146454;23;20005;-80
2022/02/14 06:23:56;;;;;;;0.82;0.20;;;8.90;99.90;;;;;;6122454;23;20539;-79
2022/02/14 06:26:22;;;;;;;0.93;0.20;;;8.90;99.90;;;;;;6125597;23;20009;-78
2022/02/14 06:28:47;;;;;;;1.38;0.20;;;8.90;99.90;;;;;;6123611;23;20450;-78
2022/02/14 06:31:13;;;;;;;0.70;0.20;;;8.90;99.90;;;;;;6121684;23;20096;-78
2022/02/14 06:33:39;;;;;;;0.70;0.20;;;9.10;99.90;;;;;;6121946;23;20048;-78
2022/02/14 06:36:06;;;;;;;0.98;0.30;;;9.10;99.90;;;;;;6122041;23;20092;-78
2022/02/14 06:38:33;;;;;;;1.08;0.20;;;9.00;99.90;;;;;;6148881;23;20014;-78
2022/02/14 06:40:58;;;;;;;1.15;0.20;;;9.00;99.90;;;;;;6122254;23;20016;-78
2022/02/14 06:43:24;;;;;;;1.70;0.30;;;9.10;99.90;;;;;;6122441;23;20339;-78
2022/02/14 06:45:50;;;;;;;4.45;0.30;;;9.10;99.90;;;;;;6146260;23;20009;-78
2022/02/14 06:48:16;;;;;;;0.60;0.20;;;9.30;99.90;;;;;;6122047;23;20120;-78
2022/02/14 06:50:41;;;;;;;0.70;0.20;;;9.20;99.90;;;;;;6122309;23;20018;-78
2022/02/14 06:53:07;;;;;;;1.63;0.30;;;9.20;99.90;;;;;;6121294;23;20439;-77
2022/02/14 06:55:33;;;;;;;1.52;0.30;;;9.30;99.90;;;;;;6145840;23;20013;-77
2022/02/14 06:57:58;;;;;;;1.33;0.20;;;9.40;99.90;;;;;;6121677;23;20017;-78
2022/02/14 07:00:24;;;;;;;3.40;0.20;;;9.40;99.90;;;;;;6122098;23;20021;-78
2022/02/14 07:02:50;;;;;;;0.70;0.30;;;9.40;99.90;;;;;;6145986;23;20013;-78
2022/02/14 07:05:17;;;;;;;0.93;0.30;;;9.50;99.90;;;;;;6145805;23;20014;-78
2022/02/14 07:07:44;;;;;;;1.02;0.20;;;9.40;99.90;;;;;;6120578;23;20149;-78
2022/02/14 07:10:12;;;;;;;1.98;0.40;;;9.50;99.90;;;;;;6145671;23;20087;-78
2022/02/14 07:12:38;;;;;;;1.58;0.30;;;9.60;99.90;;;;;;6088521;23;20454;-78
2022/02/14 07:15:04;;;;;;;2.42;0.20;;;9.70;99.90;;;;;;6113945;23;20013;-78
2022/02/14 07:17:31;;;;;;;3.13;0.30;;;9.70;99.90;;;;;;6119048;23;20548;-78
2022/02/14 07:19:57;;;;;;;2.95;0.30;;;9.80;99.90;;;;;;6121526;23;20010;-78
2022/02/14 07:22:23;;;;;;;1.98;0.40;;;9.80;99.90;;;;;;6121879;23;20037;-79
2022/02/14 07:24:49;;;;;;;1.13;0.30;;;9.90;99.90;;;;;;6120946;23;20516;-78
2022/02/14 07:27:16;;;;;;;2.22;0.20;;;9.90;99.90;;;;;;6145693;23;20014;-78
2022/02/14 07:29:43;;;;;;;1.92;0.30;;;9.90;99.90;;;;;;6148699;23;20052;-78
2022/02/14 07:32:08;;;;;;;0.77;0.20;;;9.90;99.90;;;;;;6147732;23;20001;-78
2022/02/14 07:34:34;;;;;;;1.25;0.20;;;9.90;99.90;;;;;;6121036;23;20426;-78
2022/02/14 07:37:02;;;;;;;7.82;0.30;;;9.90;99.90;;;;;;6145394;23;20450;-79
2022/02/14 07:39:30;;;;;;;1.73;0.20;;;10.00;99.90;;;;;;6145080;23;20430;-79
2022/02/14 07:41:57;;;;;;;1.15;0.40;;;10.00;99.90;;;;;;6120980;23;20443;-79
2022/02/14 07:44:24;;;;;;;1.17;0.30;;;10.00;99.90;;;;;;6145380;23;20473;-78
2022/02/14 07:46:51;;;;;;;0.90;0.30;;;10.10;99.90;;;;;;6120894;23;20017;-78
2022/02/14 07:49:21;;;;;;;1.33;0.30;;;10.10;99.90;;;;;;6121291;23;20100;-78
2022/02/14 07:51:47;;;;;;;3.22;0.40;;;10.00;99.90;;;;;;6120458;23;20299;-79
2022/02/14 07:54:13;;;;;;;2.50;0.30;;;10.00;99.90;;;;;;6146293;23;20120;-78
2022/02/14 07:56:39;;;;;;;0.77;0.30;;;10.10;99.90;;;;;;6144362;23;20009;-78
2022/02/14 07:59:06;;;;;;;0.70;0.20;;;10.00;99.90;;;;;;6145303;23;20096;-78
2022/02/14 08:01:32;;;;;;;2.08;0.30;;;10.10;99.90;;;;;;6145000;23;20005;-79
2022/02/14 08:03:58;;;;;;;1.90;0.30;;;10.10;99.90;;;;;;6120819;23;20104;-77
2022/02/14 08:06:24;;;;;;;2.10;0.30;;;10.10;99.90;;;;;;6145774;23;20010;-78
2022/02/14 08:08:50;;;;;;;1.52;0.30;;;10.00;99.90;;;;;;6144985;23;20155;-80
2022/02/14 08:11:19;;;;;;;1.88;0.20;;;10.10;99.90;;;;;;6144770;23;20036;-78
2022/02/14 08:13:46;;;;;;;1.70;0.20;;;10.20;99.90;;;;;;6120496;23;20430;-79
2022/02/14 08:16:14;;;;;;;1.35;0.30;;;10.20;99.90;;;;;;6120273;23;20020;-78
2022/02/14 08:18:39;;;;;;;1.83;0.30;;;10.20;99.90;;;;;;6120558;23;20363;-78
2022/02/14 08:21:05;;;;;;;1.52;0.30;;;10.20;99.90;;;;;;6121131;23;20009;-78
2022/02/14 08:23:30;;;;;;;3.70;0.38;;;10.20;99.90;;;;;;6120702;23;20029;-80
2022/02/14 08:25:57;;;;;;;2.83;0.40;;;10.30;99.90;;;;;;6147032;23;20013;-78
2022/02/14 08:28:23;;;;;;;2.45;0.30;;;10.30;99.90;;;;;;6146856;23;20563;-79
2022/02/14 08:30:50;;;;;;;1.60;0.30;;;10.30;99.90;;;;;;6120333;23;20014;-78
2022/02/14 08:33:16;;;;;;;2.63;0.40;;;10.30;99.90;;;;;;6097580;23;20024;-79
2022/02/14 08:35:41;;;;;;;1.00;0.30;;;10.40;99.90;;;;;;6120831;23;20525;-79
2022/02/14 08:38:07;;;;;;;1.60;0.30;;;10.40;99.90;;;;;;6145805;23;20005;-78
2022/02/14 08:40:33;;;;;;;1.85;0.30;;;10.40;99.90;;;;;;6146389;23;20013;-77
2022/02/14 08:43:00;;;;;;;1.05;0.22;;;10.40;99.90;;;;;;6119429;23;20009;-78
2022/02/14 08:45:30;;;;;;;1.58;0.20;;;10.30;99.90;;;;;;6145047;23;20013;-78
2022/02/14 08:47:56;;;;;;;2.45;0.85;;;10.30;99.90;;;;;;6146003;23;20013;-79
2022/02/14 08:50:34;;;;;;;1.50;0.10;;;10.00;99.90;;;;;;6145941;23;20072;-81
2022/02/14 08:53:00;;;;;;;0.40;0.05;;;9.30;99.90;;;;;;6120058;23;20009;-80
2022/02/14 08:55:29;;;;;;;0.40;0.10;;;8.80;99.90;;;;;;6144465;23;20029;-80
2022/02/14 08:57:55;;;;;;;1.00;0.00;;;8.60;99.90;;;;;;6146588;23;20088;-81
2022/02/14 09:00:21;;;;;;;0.93;0.00;;;8.50;99.90;;;;;;6146895;23;20486;-80
2022/02/14 09:02:46;;;;;;;0.08;0.00;;;8.40;99.90;;;;;;6119920;23;20424;-81
2022/02/14 09:05:12;;;;;;;0.30;0.00;;;8.40;99.90;;;;;;6145000;23;20016;-78
2022/02/14 09:07:38;;;;;;;0.10;0.00;;;8.30;99.90;;;;;;6145818;23;20047;-79
2022/02/14 09:10:05;;;;;;;0.38;0.00;;;8.30;99.90;;;;;;6119804;23;20021;-79
2022/02/14 09:12:31;;;;;;;1.45;0.05;;;8.30;99.90;;;;;;6143362;23;20052;-78
2022/02/14 09:14:58;;;;;;;1.02;0.10;;;8.30;99.90;;;;;;6143469;23;20005;-79
2022/02/14 09:17:25;;;;;;;0.15;0.00;;;8.40;99.90;;;;;;6145588;23;20013;-79
2022/02/14 09:19:51;;;;;;;0.20;0.00;;;8.40;99.90;;;;;;6120322;23;20096;-80
2022/02/14 09:22:17;;;;;;;0.32;0.10;;;8.40;99.90;;;;;;6144629;23;20013;-79
2022/02/14 09:24:43;;;;;;;0.20;0.00;;;8.40;99.90;;;;;;6119772;23;20029;-78
2022/02/14 09:27:10;;;;;;;0.10;0.00;;;8.40;99.90;;;;;;6147587;23;20415;-78
2022/02/14 09:29:37;;;;;;;0.35;0.00;;;8.50;99.90;;;;;;6147259;23;20353;-79
2022/02/14 09:32:03;;;;;;;0.35;0.00;;;8.40;99.90;;;;;;6122285;23;20013;-79
2022/02/14 09:34:29;;;;;;;0.70;0.03;;;8.40;99.90;;;;;;6148061;23;20036;-79
2022/02/14 09:36:56;;;;;;;0.20;0.00;;;8.50;99.90;;;;;;6147930;23;20025;-79
2022/02/14 09:39:22;;;;;;;0.10;0.00;;;8.50;99.90;;;;;;6149189;23;20041;-79
2022/02/14 09:41:48;;;;;;;0.32;0.00;;;8.50;99.90;;;;;;6122379;23;20451;-78
2022/02/14 09:44:14;;;;;;;0.55;0.00;;;8.60;99.90;;;;;;6122329;23;20088;-77
2022/02/14 09:46:41;;;;;;;0.20;0.00;;;8.50;99.90;;;;;;6122799;23;20048;-79
2022/02/14 09:49:07;;;;;;;0.90;0.00;;;8.60;99.90;;;;;;6147518;23;20018;-78
2022/02/14 09:51:35;;;;;;;0.10;0.00;;;8.60;99.90;;;;;;6147400;23;20068;-78
2022/02/14 09:54:04;;;;;;;0.20;0.00;;;8.60;99.90;;;;;;6122717;23;20017;-79
2022/02/14 09:56:34;;;;;;;0.85;0.00;;;8.60;99.90;;;;;;6148522;23;20064;-79
2022/02/14 09:59:01;;;;;;;0.40;0.00;;;8.70;99.90;;;;;;6122011;23;20013;-79
2022/02/14 10:01:28;;;;;;;0.10;0.00;;;8.70;99.90;;;;;;6146170;23;20231;-79
2022/02/14 10:03:55;;;;;;;0.30;0.10;;;8.80;99.90;;;;;;6146858;23;20039;-78
2022/02/14 10:06:36;;;;;;;0.20;0.10;;;8.70;99.90;;;;;;6122549;23;20386;-79
2022/02/14 10:09:11;;;;;;;0.25;0.10;;;8.80;99.90;;;;;;6122511;23;20017;-80
2022/02/14 10:11:42;;;;;;;0.43;0.10;;;9.00;99.90;;;;;;6146416;23;20443;-78
2022/02/14 10:14:19;;;;;;;1.00;0.10;;;9.20;99.90;;;;;;6121991;23;20017;-78
2022/02/14 10:17:04;;;;;;;0.22;0.10;;;9.20;99.90;;;;;;6148555;23;20033;-79
2022/02/14 10:19:32;;;;;;;0.45;0.20;;;9.40;99.90;;;;;;6121716;23;20097;-79
2022/02/14 10:21:58;;;;;;;0.40;0.15;;;9.50;99.90;;;;;;6121824;23;20057;-80
2022/02/14 10:24:24;;;;;;;1.05;0.20;;;9.70;99.90;;;;;;6146279;23;20021;-81
2022/02/14 10:26:52;;;;;;;1.48;0.20;;;10.00;99.90;;;;;;6121551;23;20389;-80
2022/02/14 10:29:27;;;;;;;0.40;0.20;;;10.10;99.90;;;;;;6146413;23;20025;-78
2022/02/14 10:32:01;;;;;;;1.00;0.40;;;10.30;99.90;;;;;;6146178;23;20010;-81
2022/02/14 10:34:39;;;;;;;0.93;0.30;;;10.10;99.90;;;;;;6121261;23;20020;-80
2022/02/14 10:37:09;;;;;;;0.80;0.30;;;10.00;99.90;;;;;;6122645;23;20085;-79
2022/02/14 10:39:37;;;;;;;1.10;0.50;;;10.10;99.90;;;;;;6121759;23;20017;-80
2022/02/14 10:42:09;;;;;;;1.45;0.63;;;10.00;99.90;;;;;;6147029;23;20017;-79
2022/02/14 10:47:32;;;;;;;2.00;0.93;;;10.50;99.90;;;;;;6146649;23;20391;-82
2022/02/14 10:50:02;;;;;;;1.13;0.60;;;10.40;99.90;;;;;;6146284;23;20065;-78
2022/02/14 10:52:45;;;;;;;1.50;0.70;;;10.70;99.90;;;;;;6147188;23;20018;-80
2022/02/14 10:55:15;;;;;;;2.25;0.85;;;10.80;99.90;;;;;;6122750;23;20016;-80
2022/02/14 10:57:43;;;;;;;1.92;0.60;;;10.80;99.90;;;;;;6147638;23;20037;-80
2022/02/14 11:00:10;;;;;;;2.20;0.50;;;10.90;99.90;;;;;;6147704;23;20010;-82
2022/02/14 11:02:46;;;;;;;3.25;0.50;;;11.00;99.90;;;;;;6147376;23;20020;-79
2022/02/14 11:05:16;;;;;;;2.38;0.60;;;10.80;99.90;;;;;;6146225;23;20048;-80
2022/02/14 11:07:46;;;;;;;2.25;0.55;;;11.00;99.90;;;;;;6121649;23;20021;-80
2022/02/14 11:10:15;;;;;;;6.82;0.60;;;11.00;99.90;;;;;;6147166;23;20053;-80
2022/02/14 11:12:48;;;;;;;1.00;0.40;;;11.00;99.90;;;;;;6121254;23;20036;-84
2022/02/14 11:15:15;;;;;;;2.25;0.40;;;11.30;99.90;;;;;;6148631;23;20017;-82
2022/02/14 11:17:45;;;;;;;1.40;0.20;;;11.40;99.90;;;;;;6121160;23;20016;-80
2022/02/14 11:20:11;;;;;;;0.68;0.30;;;11.20;99.90;;;;;;6148240;23;20446;-82
2022/02/14 11:22:44;;;;;;;0.65;0.20;;;11.00;99.90;;;;;;6146411;23;20010;-83
2022/02/14 11:25:17;;;;;;;1.15;0.20;;;11.10;99.90;;;;;;6097004;23;20020;-80
2022/02/14 11:28:13;;;;;;;1.15;0.30;;;11.20;99.90;;;;;;6120959;23;20100;-82
2022/02/14 11:30:39;;;;;;;1.00;0.30;;;11.40;99.90;;;;;;6085708;23;20396;-81
2022/02/14 11:33:09;;;;;;;0.98;0.40;;;11.40;99.90;;;;;;6125537;23;20037;-81
2022/02/14 11:35:37;;;;;;;1.80;0.40;;;11.00;99.90;;;;;;6101344;23;20013;-81
2022/02/14 11:38:06;;;;;;;2.70;0.40;;;11.00;99.90;;;;;;6101964;23;20355;-82
2022/02/14 11:40:46;;;;;;;1.55;0.40;;;11.00;99.90;;;;;;6076905;23;20018;-83
2022/02/14 11:43:18;;;;;;;0.98;0.40;;;10.90;99.90;;;;;;6097108;23;20013;-79
2022/02/14 11:46:04;;;;;;;2.15;0.30;;;11.20;99.90;;;;;;6120444;23;20009;-82
2022/02/14 11:48:29;;;;;;;4.88;0.50;;;11.40;99.90;;;;;;6095571;23;20017;-83
2022/02/14 11:51:10;;;;;;;1.38;0.40;;;11.20;99.90;;;;;;6096511;23;20009;-80
2022/02/14 11:53:42;;;;;;;1.42;0.30;;;11.50;99.90;;;;;;6096173;23;20024;-80
2022/02/14 11:56:24;;;;;;;1.88;0.40;;;11.30;99.90;;;;;;6121130;23;20005;-79
2022/02/14 11:59:11;;;;;;;1.50;0.30;;;11.20;99.90;;;;;;6095238;23;20307;-80
2022/02/14 12:02:01;;;;;;;3.05;0.40;;;11.10;99.90;;;;;;6120430;23;20013;-80
2022/02/14 12:04:36;;;;;;;3.42;0.40;;;11.30;99.90;;;;;;6120830;23;20016;-80
2022/02/14 12:07:23;;;;;;;1.65;0.30;;;11.30;99.90;;;;;;6096752;23;20311;-80
2022/02/14 12:10:22;;;;;;;6.28;0.43;;;11.00;99.90;;;;;;6120030;23;20088;-79
2022/02/14 12:12:59;;;;;;;2.72;0.38;;;11.20;99.90;;;;;;6112744;23;20097;-80
2022/02/14 12:20:43;;;;;;;1.17;0.30;;;11.50;99.90;;;;;;6146890;23;20080;-81
2022/02/14 12:23:09;;;;;;;0.70;0.20;;;11.60;99.90;;;;;;6099360;23;20068;-80
2022/02/14 12:25:46;;;;;;;4.22;0.30;;;11.20;99.90;;;;;;6119603;23;20020;-79
2022/02/14 12:28:11;;;;;;;1.30;0.35;;;10.70;99.90;;;;;;6146195;23;20080;-80
2022/02/14 12:30:41;;;;;;;1.13;0.52;;;10.70;99.90;;;;;;6119945;23;20045;-79
2022/02/14 12:33:08;;;;;;;0.80;0.20;;;10.80;99.90;;;;;;6146838;23;20035;-81
2022/02/14 12:35:36;;;;;;;1.23;0.40;;;10.80;99.90;;;;;;6144588;23;20045;-81
2022/02/14 12:38:03;;;;;;;2.08;0.38;;;10.70;99.90;;;;;;6120186;23;20044;-79
2022/02/14 12:40:49;;;;;;;1.00;0.30;;;11.00;99.90;;;;;;6120178;23;20024;-79
2022/02/14 12:43:26;;;;;;;0.80;0.25;;;11.10;99.90;;;;;;6146854;23;20009;-80
2022/02/14 12:45:53;;;;;;;1.33;0.20;;;11.00;99.90;;;;;;6119645;23;20017;-80
2022/02/14 12:48:35;;;;;;;2.03;0.20;;;10.90;99.90;;;;;;6147025;23;20009;-79
2022/02/14 12:51:02;;;;;;;1.83;0.32;;;10.90;99.90;;;;;;6145504;23;20009;-79
2022/02/14 12:53:28;;;;;;;1.55;0.30;;;10.80;99.90;;;;;;6144461;23;20010;-80
2022/02/14 12:55:57;;;;;;;1.13;0.35;;;10.70;99.90;;;;;;6145395;23;20020;-80
2022/02/14 12:58:26;;;;;;;1.55;0.30;;;10.90;99.90;;;;;;6146243;23;20556;-80
2022/02/14 13:01:03;;;;;;;2.00;0.30;;;10.90;99.90;;;;;;6145411;23;20009;-81
2022/02/14 13:03:31;;;;;;;0.93;0.20;;;10.90;99.90;;;;;;6147450;23;20009;-80
2022/02/14 13:05:57;;;;;;;1.20;0.22;;;10.80;99.90;;;;;;6122119;23;20021;-79
2022/02/14 13:08:29;;;;;;;2.20;0.30;;;10.60;99.90;;;;;;6123056;23;20017;-81